Time;durP1;ratioP1;P1;durP2;ratioP2;P2;SDS_P1;SDS_P2;PMS_P1;PMS_P2;Temp;Humidity;BMP_temperature;BMP_pressure;BME280_temperature;BME280_humidity;BME280_pressure;Samples;Min_cycle;Max_cycle;Signal;HPM_P1;HPM_P2
2023/01/17 00:01:38;;;;;;;11.98;7.13;;;;;;;0.93;100.00;97675.44;5075194;28;20036;-71
2023/01/17 00:12:16;;;;;;;11.68;7.03;;;;;;;0.92;100.00;97662.06;5064465;28;20048;-71
2023/01/17 00:14:41;;;;;;;9.90;6.40;;;;;;;0.91;100.00;97663.19;5022564;28;20033;-71
2023/01/17 00:17:07;;;;;;;10.50;6.60;;;;;;;0.91;100.00;97658.50;5061552;28;20024;-71
2023/01/17 01:34:17;;;;;;;9.40;5.70;;;;;;;0.97;100.00;97507.00;5068359;28;20132;-72
2023/01/17 01:36:43;;;;;;;9.60;5.50;;;;;;;1.00;100.00;97502.84;5040181;28;20063;-72
2023/01/17 01:39:08;;;;;;;8.45;5.40;;;;;;;1.00;100.00;97500.13;5070462;28;20051;-71
2023/01/17 01:41:34;;;;;;;10.40;5.47;;;;;;;1.01;100.00;97499.03;5054720;28;20028;-72
2023/01/17 01:43:59;;;;;;;10.88;5.97;;;;;;;1.00;100.00;97498.19;5070211;28;20029;-72
2023/01/17 01:46:35;;;;;;;8.63;5.50;;;;;;;1.01;100.00;97505.28;5057255;28;20024;-72
2023/01/17 01:49:04;;;;;;;10.20;5.80;;;;;;;1.04;100.00;97495.69;5054222;28;20029;-72
2023/01/17 01:51:45;;;;;;;10.23;5.75;;;;;;;1.02;100.00;97490.50;5032490;28;20032;-72
2023/01/17 01:54:16;;;;;;;9.23;5.43;;;;;;;1.03;100.00;97483.09;5027211;28;20021;-72
2023/01/17 01:56:41;;;;;;;11.55;5.53;;;;;;;1.05;100.00;97487.16;5037939;28;20029;-72
2023/01/17 01:59:08;;;;;;;12.25;5.97;;;;;;;1.06;100.00;97479.78;5045478;28;20035;-72
2023/01/17 02:01:34;;;;;;;9.68;5.47;;;;;;;1.05;100.00;97478.97;5042109;28;20021;-72
2023/01/17 02:03:59;;;;;;;9.00;5.18;;;;;;;1.05;100.00;97480.88;5070403;28;20480;-72
2023/01/17 02:06:31;;;;;;;11.40;5.70;;;;;;;1.07;100.00;97463.06;5037132;28;20037;-72
2023/01/17 02:08:59;;;;;;;13.02;5.70;;;;;;;1.08;100.00;97470.16;5042412;28;20029;-72
2023/01/17 02:11:25;;;;;;;10.48;5.72;;;;;;;1.08;100.00;97470.16;5067004;28;20401;-72
2023/01/17 02:13:50;;;;;;;9.10;5.22;;;;;;;1.10;100.00;97467.13;5055185;28;20086;-72
2023/01/17 02:16:41;;;;;;;12.43;5.85;;;;;;;1.10;100.00;97461.66;5053027;28;20040;-72
2023/01/17 02:19:29;;;;;;;11.40;5.82;;;;;;;1.08;100.00;97463.88;5039351;28;20119;-72
2023/01/17 02:22:30;;;;;;;9.70;5.70;;;;;;;1.09;100.00;97469.06;5049596;28;20024;-72
2023/01/17 02:25:20;;;;;;;9.20;5.55;;;;;;;1.11;100.00;97464.09;5063108;28;20068;-72
2023/01/17 02:28:09;;;;;;;10.52;5.65;;;;;;;1.15;100.00;97464.28;5072154;28;20029;-72
2023/01/17 02:30:41;;;;;;;12.07;6.85;;;;;;;1.18;100.00;97457.41;5065295;28;20032;-72
2023/01/17 02:33:14;;;;;;;12.43;6.15;;;;;;;1.21;100.00;97459.50;5044459;28;20039;-72
2023/01/17 02:36:18;;;;;;;13.15;6.03;;;;;;;1.24;100.00;97453.41;5061414;28;20036;-71
2023/01/17 02:39:09;;;;;;;10.90;6.07;;;;;;;1.23;100.00;97454.56;5052906;28;20041;-72
2023/01/17 02:41:39;;;;;;;14.10;6.93;;;;;;;1.24;100.00;97462.44;5070430;28;20029;-72
2023/01/17 02:44:07;;;;;;;14.00;6.80;;;;;;;1.29;100.00;97447.84;5035266;28;20032;-72
2023/01/17 02:46:43;;;;;;;13.07;6.65;;;;;;;1.31;100.00;97445.63;5064542;28;20036;-72
2023/01/17 02:49:09;;;;;;;13.57;6.80;;;;;;;1.30;100.00;97449.44;5023529;28;20117;-72
2023/01/17 02:51:41;;;;;;;15.63;7.45;;;;;;;1.32;100.00;97447.22;5058125;28;20028;-72
2023/01/17 02:54:07;;;;;;;;;;;;;;;1.37;100.00;97447.13;5070967;28;20060;-72
2023/01/17 02:57:02;;;;;;;13.90;8.02;;;;;;;1.37;100.00;97444.38;5087497;28;19912;-72
2023/01/17 02:59:52;;;;;;;16.13;7.60;;;;;;;1.39;100.00;97439.38;5048133;28;20120;-72
2023/01/17 03:02:27;;;;;;;13.85;7.70;;;;;;;1.42;100.00;97436.06;5046275;28;20040;-72
2023/01/17 03:05:04;;;;;;;14.32;8.73;;;;;;;1.43;100.00;97428.66;5065164;28;20036;-72
2023/01/17 03:07:29;;;;;;;13.25;7.85;;;;;;;1.44;100.00;97428.34;5066369;28;20033;-72
2023/01/17 03:09:58;;;;;;;13.38;8.18;;;;;;;1.47;100.00;97427.72;5053837;28;20032;-72
2023/01/17 03:12:28;;;;;;;14.90;7.55;;;;;;;1.45;100.00;97421.75;5049357;28;20428;-72
2023/01/17 03:14:53;;;;;;;16.00;7.95;;;;;;;1.50;100.00;97413.41;5055118;28;20029;-72
2023/01/17 03:17:19;;;;;;;15.30;8.18;;;;;;;1.50;100.00;97409.88;5085314;28;20039;-72
2023/01/17 03:19:45;;;;;;;13.18;7.55;;;;;;;1.51;100.00;97406.84;5058320;28;20029;-72
2023/01/17 03:22:10;;;;;;;14.10;8.00;;;;;;;1.51;100.00;97406.84;5051419;28;20691;-72
2023/01/17 03:24:36;;;;;;;12.20;7.88;;;;;;;1.50;100.00;97398.94;5043762;28;20509;-72
2023/01/17 03:27:01;;;;;;;15.18;8.63;;;;;;;1.51;100.00;97395.09;5073237;28;20025;-72
2023/01/17 03:29:27;;;;;;;15.48;7.85;;;;;;;1.54;100.00;97403.50;5069850;28;20064;-72
2023/01/17 03:31:52;;;;;;;12.68;8.52;;;;;;;1.53;100.00;97396.41;5065401;28;20025;-72
2023/01/17 03:34:18;;;;;;;14.77;8.38;;;;;;;1.53;100.00;97396.41;5056313;28;20025;-72
2023/01/17 03:36:43;;;;;;;15.07;9.45;;;;;;;1.53;100.00;97393.69;5055049;28;20060;-72
2023/01/17 03:39:09;;;;;;;15.30;8.60;;;;;;;1.56;100.00;97381.28;5022570;28;20603;-72
2023/01/17 03:41:34;;;;;;;17.90;8.68;;;;;;;1.59;100.00;97379.84;5066540;28;20028;-72
2023/01/17 03:44:00;;;;;;;13.95;8.50;;;;;;;1.56;100.00;97382.13;5072545;28;20025;-72
2023/01/17 03:46:27;;;;;;;13.48;8.45;;;;;;;1.60;100.00;97381.47;5049432;28;20033;-72
2023/01/17 03:48:52;;;;;;;14.20;8.73;;;;;;;1.60;100.00;97373.28;5056088;28;20029;-72
2023/01/17 03:51:18;;;;;;;13.95;8.98;;;;;;;1.63;100.00;97370.72;5072889;28;20691;-72
2023/01/17 03:53:45;;;;;;;15.35;8.27;;;;;;;1.65;100.00;97368.47;5072970;28;20029;-72
2023/01/17 03:56:11;;;;;;;15.38;8.95;;;;;;;1.62;100.00;97363.66;5032465;28;20021;-72
2023/01/17 03:58:36;;;;;;;16.88;9.23;;;;;;;1.69;100.00;97357.72;5068581;28;20040;-72
2023/01/17 04:01:02;;;;;;;12.95;8.93;;;;;;;1.67;100.00;97365.41;5055784;28;20036;-72
2023/01/17 04:03:27;;;;;;;14.20;8.63;;;;;;;1.71;100.00;97359.03;5038474;28;20037;-72
2023/01/17 04:05:53;;;;;;;13.50;9.30;;;;;;;1.72;100.00;97362.56;5074876;28;20025;-72
2023/01/17 04:08:18;;;;;;;15.50;8.07;;;;;;;1.72;100.00;97354.34;5059741;28;20041;-72
2023/01/17 04:10:44;;;;;;;12.82;8.70;;;;;;;1.75;100.00;97364.66;5072071;28;20025;-72
2023/01/17 04:13:09;;;;;;;13.77;9.10;;;;;;;1.71;100.00;97360.97;5052291;28;20561;-72
2023/01/17 04:15:35;;;;;;;14.57;9.25;;;;;;;1.74;100.00;97360.31;5056865;28;20083;-72
2023/01/17 04:18:00;;;;;;;14.05;9.15;;;;;;;1.73;100.00;97353.25;5035696;28;20033;-72
2023/01/17 04:20:34;;;;;;;15.68;8.90;;;;;;;1.74;100.00;97357.59;5048211;28;20036;-72
2023/01/17 04:22:59;;;;;;;17.88;9.20;;;;;;;1.77;100.00;97357.75;5070846;28;20177;-72
2023/01/17 04:25:25;;;;;;;12.88;8.82;;;;;;;1.76;100.00;97358.91;5072101;28;20063;-72
2023/01/17 04:27:51;;;;;;;16.52;8.70;;;;;;;1.76;100.00;97358.91;5071115;28;20074;-72
2023/01/17 04:30:17;;;;;;;14.43;8.98;;;;;;;1.78;100.00;97355.81;5075744;28;20032;-72
2023/01/17 04:32:42;;;;;;;15.65;10.07;;;;;;;1.78;100.00;97353.94;5011922;28;20496;-72
2023/01/17 04:35:08;;;;;;;13.45;9.20;;;;;;;1.81;100.00;97357.94;5035557;28;20041;-72
2023/01/17 04:37:34;;;;;;;12.55;9.10;;;;;;;1.79;100.00;97355.53;5051518;28;20109;-72
2023/01/17 04:40:00;;;;;;;14.02;9.23;;;;;;;1.79;100.00;97358.25;5022266;28;20052;-72
2023/01/17 04:42:25;;;;;;;13.25;8.52;;;;;;;1.81;100.00;97354.41;5038528;28;20025;-72
2023/01/17 04:44:51;;;;;;;11.60;8.30;;;;;;;1.81;100.00;97357.94;5071738;28;20494;-72
2023/01/17 04:47:16;;;;;;;14.23;8.80;;;;;;;1.83;100.00;97350.22;5070826;28;20058;-72
2023/01/17 04:49:42;;;;;;;16.55;9.80;;;;;;;1.85;100.00;97349.94;5038309;28;20032;-72
2023/01/17 04:52:07;;;;;;;15.90;9.50;;;;;;;1.86;100.00;97349.59;5039293;28;20032;-72
2023/01/17 04:54:33;;;;;;;16.67;9.75;;;;;;;1.85;100.00;97353.47;5065873;28;20037;-72
2023/01/17 04:56:58;;;;;;;14.88;9.50;;;;;;;1.86;100.00;97349.59;5055954;28;20444;-72
2023/01/17 04:59:23;;;;;;;13.85;8.80;;;;;;;1.87;100.00;97347.69;5060698;28;20024;-72
2023/01/17 05:01:50;;;;;;;14.20;9.98;;;;;;;1.86;100.00;97346.06;5053849;28;20029;-72
2023/01/17 05:04:16;;;;;;;13.52;9.55;;;;;;;1.87;100.00;97340.28;5019402;28;20087;-72
2023/01/17 05:06:43;;;;;;;14.55;9.80;;;;;;;1.88;100.00;97343.81;5037903;28;20115;-72
2023/01/17 05:09:09;;;;;;;14.65;10.18;;;;;;;1.89;100.00;97343.50;5064585;28;20393;-72
2023/01/17 05:11:34;;;;;;;13.90;9.27;;;;;;;1.91;100.00;97344.00;5054299;28;20029;-71
2023/01/17 05:14:00;;;;;;;13.57;9.38;;;;;;;1.90;100.00;97342.38;5044335;28;20371;-72
2023/01/17 05:16:25;;;;;;;15.80;9.32;;;;;;;1.94;100.00;97339.81;5069036;28;20473;-72
2023/01/17 05:18:52;;;;;;;13.80;9.52;;;;;;;1.94;100.00;97342.56;5044201;28;20541;-72
2023/01/17 05:21:18;;;;;;;15.02;9.23;;;;;;;1.95;100.00;97344.16;5069054;28;20043;-72
2023/01/17 05:23:43;;;;;;;13.60;9.60;;;;;;;1.94;100.00;97337.09;5037415;28;20033;-72
2023/01/17 05:26:09;;;;;;;14.40;9.57;;;;;;;1.97;100.00;97337.25;5068600;28;20504;-72
2023/01/17 05:28:34;;;;;;;16.33;9.98;;;;;;;1.97;100.00;97329.03;5070657;28;20032;-72
2023/01/17 05:31:00;;;;;;;14.82;10.38;;;;;;;1.95;100.00;97330.47;5047260;28;20028;-72
2023/01/17 05:33:25;;;;;;;16.08;9.80;;;;;;;1.98;100.00;97325.19;5024007;28;20390;-72
2023/01/17 05:35:51;;;;;;;13.63;10.27;;;;;;;1.96;100.00;97329.38;5059823;28;20028;-72
2023/01/17 05:38:17;;;;;;;13.10;9.23;;;;;;;1.99;100.00;97335.03;5054958;28;20052;-72
2023/01/17 05:40:42;;;;;;;14.27;9.65;;;;;;;1.98;100.00;97325.19;5067463;28;20040;-72
2023/01/17 05:43:08;;;;;;;13.27;8.75;;;;;;;1.96;100.00;97327.44;5054096;28;20120;-72
2023/01/17 05:45:33;;;;;;;11.80;8.43;;;;;;;1.98;100.00;97324.41;5054301;28;20025;-72
2023/01/17 05:47:59;;;;;;;12.68;9.15;;;;;;;1.96;100.00;97323.91;5059836;28;20033;-72
2023/01/17 05:50:28;;;;;;;14.63;8.40;;;;;;;1.96;100.00;97321.97;5083737;28;20033;-72
2023/01/17 05:52:57;;;;;;;12.48;7.65;;;;;;;1.96;100.00;97323.91;5063322;28;20089;-72
2023/01/17 05:55:23;;;;;;;10.70;7.65;;;;;;;1.96;100.00;97330.19;5053940;28;20604;-72
2023/01/17 05:57:49;;;;;;;11.98;7.85;;;;;;;1.95;100.00;97322.25;5070546;28;20025;-72
2023/01/17 06:00:15;;;;;;;9.35;7.15;;;;;;;1.94;100.00;97332.41;5053846;28;20044;-72
2023/01/17 06:02:41;;;;;;;10.20;6.47;;;;;;;1.94;100.00;97332.41;5044627;28;20035;-72
2023/01/17 06:05:07;;;;;;;8.70;6.45;;;;;;;1.92;100.00;97333.84;5063219;28;20029;-72
2023/01/17 06:07:33;;;;;;;9.02;6.22;;;;;;;1.93;100.00;97333.53;5053769;28;20029;-72
2023/01/17 06:09:58;;;;;;;8.60;5.88;;;;;;;1.90;100.00;97334.19;5053890;28;20025;-72
2023/01/17 06:12:23;;;;;;;8.13;5.80;;;;;;;1.90;100.00;97336.91;5066046;28;20052;-72
2023/01/17 06:14:49;;;;;;;7.32;5.70;;;;;;;1.89;100.00;97339.94;5055421;28;20025;-72
2023/01/17 06:17:14;;;;;;;7.80;5.60;;;;;;;1.86;100.00;97335.13;5069898;28;20025;-72
2023/01/17 06:19:40;;;;;;;8.05;5.40;;;;;;;1.86;100.00;97338.66;5075165;28;20037;-72
2023/01/17 06:22:05;;;;;;;8.93;5.32;;;;;;;1.88;100.00;97339.16;5063441;28;20086;-72
2023/01/17 06:24:32;;;;;;;7.93;5.15;;;;;;;1.89;100.00;97345.44;5050686;28;20527;-72
2023/01/17 06:26:58;;;;;;;7.55;5.55;;;;;;;1.84;100.00;97335.44;5045007;28;20029;-72
2023/01/17 06:29:23;;;;;;;7.57;5.13;;;;;;;1.85;100.00;97338.97;5074295;28;20088;-72
2023/01/17 06:31:49;;;;;;;6.47;5.00;;;;;;;1.85;100.00;97330.78;5062773;28;20056;-72
2023/01/17 06:34:14;;;;;;;9.05;4.90;;;;;;;1.86;100.00;97340.59;5055386;28;20033;-72
2023/01/17 06:36:40;;;;;;;7.20;4.93;;;;;;;1.85;100.00;97333.50;5035194;28;20111;-72
2023/01/17 06:39:06;;;;;;;7.75;5.13;;;;;;;1.82;100.00;97332.22;5043155;28;20029;-72
2023/01/17 06:41:31;;;;;;;7.18;4.95;;;;;;;1.87;100.00;97336.75;5024198;28;20028;-72
2023/01/17 06:43:57;;;;;;;6.85;4.97;;;;;;;1.85;100.00;97337.03;5053062;28;20576;-71
2023/01/17 06:46:22;;;;;;;6.43;4.50;;;;;;;1.83;100.00;97343.94;5065574;28;20024;-72
2023/01/17 06:48:48;;;;;;;6.20;4.15;;;;;;;1.85;100.00;97345.25;5061959;28;20040;-72
2023/01/17 06:51:14;;;;;;;5.55;4.47;;;;;;;1.82;100.00;97339.63;5045807;28;20060;-72
2023/01/17 06:53:40;;;;;;;6.43;4.20;;;;;;;1.81;100.00;97346.19;5089320;28;20028;-72
2023/01/17 06:56:06;;;;;;;5.47;4.00;;;;;;;1.81;100.00;97349.72;5068059;28;20029;-72
2023/01/17 06:58:31;;;;;;;5.68;4.43;;;;;;;1.78;100.00;97350.34;5058384;28;20029;-72
2023/01/17 07:00:57;;;;;;;6.20;4.53;;;;;;;1.76;100.00;97353.41;5062771;28;20040;-72
2023/01/17 07:03:24;;;;;;;5.25;3.97;;;;;;;1.73;100.00;97358.72;5070166;28;20033;-72
2023/01/17 07:05:49;;;;;;;5.40;3.85;;;;;;;1.72;100.00;97351.63;5066313;28;20047;-72
2023/01/17 07:08:15;;;;;;;4.60;3.60;;;;;;;1.69;100.00;97355.78;5027493;28;20389;-72
2023/01/17 07:10:43;;;;;;;4.45;3.58;;;;;;;1.67;100.00;97347.09;5057997;28;20081;-72
2023/01/17 07:13:09;;;;;;;5.03;3.83;;;;;;;1.68;100.00;97342.44;5056755;28;20033;-72
2023/01/17 07:15:35;;;;;;;4.90;3.75;;;;;;;1.64;100.00;97350.44;5060703;28;20024;-71
2023/01/17 07:18:01;;;;;;;4.88;3.35;;;;;;;1.62;100.00;97340.97;5074153;28;20025;-72
2023/01/17 07:20:26;;;;;;;4.93;3.42;;;;;;;1.59;100.00;97347.03;5063520;28;20048;-72
2023/01/17 07:22:52;;;;;;;4.05;3.50;;;;;;;1.56;100.00;97343.81;5038335;28;20032;-72
2023/01/17 07:25:18;;;;;;;6.40;3.60;;;;;;;1.53;100.00;97344.44;5056609;28;20547;-72
2023/01/17 07:27:45;;;;;;;4.47;3.17;;;;;;;1.54;100.00;97348.78;5057562;28;20024;-72
2023/01/17 07:30:11;;;;;;;4.88;2.97;;;;;;;1.54;100.00;97346.03;5065816;28;20029;-71
2023/01/17 07:32:36;;;;;;;3.72;3.00;;;;;;;1.52;100.00;97344.75;5058028;28;20037;-72
2023/01/17 07:35:02;;;;;;;3.22;2.72;;;;;;;1.52;100.00;97326.41;5068134;28;20040;-72
2023/01/17 07:37:27;;;;;;;5.05;3.00;;;;;;;1.50;100.00;97339.56;5059632;28;20057;-72
2023/01/17 07:39:53;;;;;;;3.88;3.00;;;;;;;1.49;100.00;97343.44;5057619;28;20032;-72
2023/01/17 07:42:19;;;;;;;4.22;2.90;;;;;;;1.46;100.00;97346.78;5074842;28;20025;-72
2023/01/17 07:44:44;;;;;;;4.32;3.10;;;;;;;1.45;100.00;97358.88;5056124;28;20553;-72
2023/01/17 07:47:10;;;;;;;4.00;3.13;;;;;;;1.48;100.00;97352.78;5072748;28;20048;-71
2023/01/17 07:49:36;;;;;;;3.60;2.95;;;;;;;1.45;100.00;97353.41;5065256;28;20477;-72
2023/01/17 07:52:02;;;;;;;4.45;3.28;;;;;;;1.45;100.00;97363.50;5043725;28;20032;-71
2023/01/17 07:54:28;;;;;;;5.25;3.35;;;;;;;1.47;100.00;97355.81;5092980;28;20558;-72
2023/01/17 07:56:53;;;;;;;4.63;3.60;;;;;;;1.46;100.00;97365.94;5042192;28;20036;-72
2023/01/17 07:59:19;;;;;;;5.13;3.47;;;;;;;1.46;100.00;97359.66;5022662;28;20025;-72
2023/01/17 08:01:44;;;;;;;5.28;3.40;;;;;;;1.43;100.00;97368.50;5038731;28;20032;-72
2023/01/17 08:04:10;;;;;;;4.15;3.35;;;;;;;1.42;100.00;97364.97;5049858;28;20025;-71
2023/01/17 08:06:36;;;;;;;6.60;3.80;;;;;;;1.40;100.00;97356.25;5039491;28;20024;-72
2023/01/17 08:09:02;;;;;;;5.22;3.60;;;;;;;1.40;100.00;97360.91;5062072;28;20036;-71
2023/01/17 08:11:27;;;;;;;4.28;3.65;;;;;;;1.41;100.00;97368.78;5022172;28;20032;-71
2023/01/17 08:13:58;;;;;;;7.68;4.10;;;;;;;1.45;100.00;97367.06;5028587;28;20094;-71
2023/01/17 08:16:23;;;;;;;4.70;3.47;;;;;;;1.46;100.00;97367.88;5068746;28;20044;-72
2023/01/17 08:18:50;;;;;;;4.88;3.50;;;;;;;1.44;100.00;97349.03;5056739;28;20029;-72
2023/01/17 08:21:15;;;;;;;5.10;3.97;;;;;;;1.47;100.00;97336.66;5068383;28;20035;-72
2023/01/17 08:23:50;;;;;;;5.53;3.97;;;;;;;1.44;100.00;97326.34;5047737;28;20033;-71
2023/01/17 08:26:23;;;;;;;4.93;3.80;;;;;;;1.42;100.00;97321.22;5055462;28;20035;-72
2023/01/17 08:28:53;;;;;;;5.85;3.92;;;;;;;1.40;100.00;97323.44;5067332;28;20103;-71
2023/01/17 08:31:19;;;;;;;5.20;3.88;;;;;;;1.40;100.00;97320.72;5070180;28;20029;-72
2023/01/17 08:33:45;;;;;;;6.68;3.78;;;;;;;1.37;100.00;97321.34;5056316;28;20040;-72
2023/01/17 08:36:10;;;;;;;4.70;4.00;;;;;;;1.37;100.00;97331.47;5037188;28;20405;-71
2023/01/17 08:38:36;;;;;;;4.90;3.97;;;;;;;1.32;100.00;97335.94;5048999;28;20417;-71
2023/01/17 08:41:01;;;;;;;5.22;3.72;;;;;;;1.32;100.00;97351.53;5053281;28;20039;-72
2023/01/17 08:43:27;;;;;;;5.10;3.78;;;;;;;1.31;100.00;97371.78;5074891;28;20024;-71
2023/01/17 08:45:54;;;;;;;4.75;3.50;;;;;;;1.32;100.00;97376.13;5056959;28;20064;-72
2023/01/17 08:48:22;;;;;;;6.65;4.30;;;;;;;1.32;100.00;97376.13;5024468;28;20032;-71
2023/01/17 08:50:48;;;;;;;5.50;3.85;;;;;;;1.36;100.00;97381.78;5055386;28;20020;-71
2023/01/17 08:53:14;;;;;;;6.15;4.10;;;;;;;1.41;100.00;97387.13;5055405;28;20400;-71
2023/01/17 08:55:40;;;;;;;5.38;4.40;;;;;;;1.42;100.00;97391.47;5069741;28;20028;-71
2023/01/17 08:58:06;;;;;;;9.23;4.38;;;;;;;1.46;100.00;97387.03;5047420;28;20029;-71
2023/01/17 09:00:33;;;;;;;6.40;4.65;;;;;;;1.48;100.00;97382.84;5068459;28;20116;-72
2023/01/17 09:02:58;;;;;;;6.18;4.18;;;;;;;1.54;100.00;97389.00;5058909;28;20029;-71
2023/01/17 09:05:24;;;;;;;6.35;5.00;;;;;;;1.56;100.00;97392.22;5051724;28;20090;-71
2023/01/17 09:07:49;;;;;;;8.75;6.65;;;;;;;1.60;100.00;97397.91;5071195;28;20078;-71
2023/01/17 09:10:15;;;;;;;8.07;5.38;;;;;;;1.65;100.00;97405.97;5074020;28;20033;-71
2023/01/17 09:12:41;;;;;;;11.10;6.20;;;;;;;1.68;100.00;97400.69;5071295;28;20036;-72
2023/01/17 09:15:07;;;;;;;9.80;6.55;;;;;;;1.73;100.00;97400.56;5037913;28;20032;-71
2023/01/17 09:17:32;;;;;;;11.00;7.07;;;;;;;1.77;100.00;97389.78;5057798;28;20111;-72
2023/01/17 09:19:58;;;;;;;10.98;7.75;;;;;;;1.82;100.00;97389.66;5037683;28;20036;-71
2023/01/17 09:22:25;;;;;;;10.50;7.55;;;;;;;1.88;100.00;97396.63;5037865;28;20099;-72
2023/01/17 09:24:50;;;;;;;15.77;10.25;;;;;;;1.95;100.00;97382.47;5050911;28;20036;-71
2023/01/17 09:27:16;;;;;;;18.70;11.75;;;;;;;1.99;100.00;97389.75;5070827;28;20410;-71
2023/01/17 09:29:41;;;;;;;18.23;10.48;;;;;;;2.05;100.00;97389.63;5067822;28;20032;-72
2023/01/17 09:32:07;;;;;;;17.60;10.57;;;;;;;2.10;100.00;97386.75;5053853;28;20104;-71
2023/01/17 09:34:33;;;;;;;17.88;11.63;;;;;;;2.16;100.00;97385.50;5038292;28;20627;-72
2023/01/17 09:36:58;;;;;;;21.40;13.10;;;;;;;2.24;100.00;97392.94;5049883;28;20068;-72
2023/01/17 09:39:24;;;;;;;22.13;12.93;;;;;;;2.27;100.00;97395.03;5054223;28;20029;-72
2023/01/17 09:42:23;;;;;;;20.25;12.43;;;;;;;2.33;100.00;97388.31;5049859;28;20458;-72
2023/01/17 09:44:52;;;;;;;20.80;12.95;;;;;;;2.37;100.00;97405.72;5054035;28;20028;-72
2023/01/17 09:47:44;;;;;;;20.98;11.93;;;;;;;2.41;100.00;97405.91;5070002;28;20033;-72
2023/01/17 09:50:34;;;;;;;21.15;13.25;;;;;;;2.45;100.00;97415.09;5069451;28;20036;-72
2023/01/17 09:53:03;;;;;;;20.38;12.63;;;;;;;2.50;100.00;97403.19;5062641;28;20048;-72
2023/01/17 09:55:36;;;;;;;19.15;12.60;;;;;;;2.52;100.00;97409.97;5036038;28;20036;-72
2023/01/17 09:58:08;;;;;;;19.85;12.73;;;;;;;2.57;100.00;97409.03;5070396;28;20040;-72
2023/01/17 10:00:36;;;;;;;18.58;12.05;;;;;;;2.59;100.00;97404.00;5069609;28;20700;-72
2023/01/17 10:03:29;;;;;;;17.75;11.40;;;;;;;2.63;100.00;97408.56;5054718;28;20040;-72
2023/01/17 10:06:00;;;;;;;17.05;11.13;;;;;;;2.66;100.00;97401.63;5070532;28;20113;-72
2023/01/17 10:08:30;;;;;;;16.73;10.68;;;;;;;2.70;100.00;97410.81;5050107;28;20075;-72
2023/01/17 10:11:20;;;;;;;14.52;9.80;;;;;;;2.73;100.00;97412.13;5046427;28;20037;-72
2023/01/17 10:13:59;;;;;;;17.65;10.48;;;;;;;2.76;100.00;97417.78;5063971;28;20039;-72
2023/01/17 10:16:57;;;;;;;13.50;9.38;;;;;;;2.78;100.00;97414.72;5035613;28;20083;-72
2023/01/17 10:19:38;;;;;;;11.35;8.20;;;;;;;2.82;100.00;97424.72;5024782;28;20052;-72
2023/01/17 10:22:23;;;;;;;12.70;8.85;;;;;;;2.85;100.00;97420.56;5065117;28;20035;-72
2023/01/17 10:25:15;;;;;;;12.15;8.63;;;;;;;2.89;100.00;97429.72;5056828;28;20025;-72
2023/01/17 10:27:44;;;;;;;11.40;8.27;;;;;;;2.94;100.00;97426.03;5069623;28;20049;-72
2023/01/17 10:30:21;;;;;;;12.10;7.85;;;;;;;2.97;100.00;97430.88;5045385;28;20477;-72
2023/01/17 10:32:48;;;;;;;9.73;6.88;;;;;;;3.02;100.00;97436.22;5039741;28;20029;-72
2023/01/17 10:35:20;;;;;;;9.60;7.22;;;;;;;3.07;100.00;97436.06;5063880;28;20037;-72
2023/01/17 10:37:46;;;;;;;8.63;7.18;;;;;;;3.12;100.00;97441.38;5055477;28;20057;-72
2023/01/17 10:40:13;;;;;;;7.90;6.00;;;;;;;3.15;100.00;97427.06;5053745;28;20111;-71
2023/01/17 10:43:13;;;;;;;7.85;6.07;;;;;;;3.21;100.00;97435.94;5035235;28;20159;-72
2023/01/17 10:45:57;;;;;;;9.05;5.82;;;;;;;3.28;100.00;97433.50;5053042;28;20043;-72
2023/01/17 10:48:49;;;;;;;6.88;5.13;;;;;;;3.33;100.00;97431.41;5066552;28;20028;-72
2023/01/17 10:51:42;;;;;;;6.57;4.87;;;;;;;3.40;100.00;97424.63;5051524;28;20426;-72
2023/01/17 10:54:28;;;;;;;;;;;;;;;3.45;100.00;97424.47;5071216;28;20079;-72
2023/01/17 10:56:53;;;;;;;6.07;4.68;;;;;;;3.50;100.00;97424.31;5055749;28;19995;-72
2023/01/17 10:59:32;;;;;;;7.45;4.72;;;;;;;3.54;100.00;97430.78;5064310;28;20032;-72
2023/01/17 11:01:58;;;;;;;6.85;5.00;;;;;;;3.56;100.00;97434.00;5049424;28;20028;-72
2023/01/17 11:04:40;;;;;;;6.97;5.25;;;;;;;3.60;100.00;97431.44;5058462;28;20037;-72
2023/01/17 11:07:26;;;;;;;4.38;3.58;;;;;;;3.63;100.00;97428.84;5060111;28;20613;-72
2023/01/17 11:09:55;;;;;;;4.85;4.13;;;;;;;3.65;100.00;97440.31;5072868;28;20048;-72
2023/01/17 11:12:39;;;;;;;6.10;4.70;;;;;;;3.69;100.00;97427.53;5031745;28;20377;-72
2023/01/17 11:15:18;;;;;;;5.78;4.55;;;;;;;3.73;100.00;97428.53;5084787;28;20075;-72
2023/01/17 11:17:59;;;;;;;6.40;4.68;;;;;;;3.76;100.00;97424.31;5052098;28;20041;-72
2023/01/17 11:20:38;;;;;;;5.93;4.43;;;;;;;3.82;100.00;97425.78;5072655;28;20063;-72
2023/01/17 11:23:23;;;;;;;4.75;4.20;;;;;;;3.86;100.00;97426.72;5046404;28;20039;-72
2023/01/17 11:25:56;;;;;;;5.45;4.43;;;;;;;3.91;100.00;97420.25;5076517;28;20111;-72
2023/01/17 11:28:29;;;;;;;5.68;4.35;;;;;;;3.96;100.00;97414.59;5060382;28;20032;-72
2023/01/17 11:31:08;;;;;;;5.47;4.75;;;;;;;3.99;100.00;97403.78;5059480;28;20029;-72
2023/01/17 11:33:56;;;;;;;5.70;4.40;;;;;;;4.01;100.00;97397.94;5066737;28;20441;-72
2023/01/17 11:36:29;;;;;;;5.97;4.80;;;;;;;4.05;100.00;97390.66;5056187;28;20028;-72
2023/01/17 11:38:58;;;;;;;;;;;;;;;4.05;100.00;97384.38;5073013;28;20033;-72
2023/01/17 11:41:26;;;;;;;7.85;5.47;;;;;;;4.09;100.00;97379.81;5057255;28;19956;-72
2023/01/17 11:43:58;;;;;;;8.68;6.30;;;;;;;4.12;100.00;97379.16;5038826;28;20426;-72
2023/01/17 11:46:24;;;;;;;6.25;5.25;;;;;;;4.14;100.00;97380.44;5033668;28;20075;-72
2023/01/17 11:48:51;;;;;;;10.10;6.15;;;;;;;4.13;100.00;97376.09;5054976;28;20041;-71
2023/01/17 11:51:47;;;;;;;8.95;6.28;;;;;;;4.17;100.00;97377.06;5066346;28;20112;-72
2023/01/17 11:54:26;;;;;;;7.45;5.30;;;;;;;4.22;100.00;97373.31;5082576;28;20044;-72
2023/01/17 11:56:58;;;;;;;7.43;6.30;;;;;;;4.24;100.00;97376.56;5055753;28;20032;-72
2023/01/17 11:59:33;;;;;;;7.95;6.15;;;;;;;4.28;100.00;97376.69;5013091;28;20037;-72
2023/01/17 12:02:20;;;;;;;9.00;6.50;;;;;;;4.29;100.00;97376.38;5068682;28;20503;-72
2023/01/17 12:05:17;;;;;;;10.15;6.88;;;;;;;4.33;100.00;97379.28;5063127;28;20041;-72
2023/01/17 12:07:51;;;;;;;9.25;7.30;;;;;;;4.33;100.00;97376.53;5056958;28;20109;-72
2023/01/17 12:10:24;;;;;;;9.60;6.95;;;;;;;4.35;100.00;97368.75;5076546;28;20037;-72
2023/01/17 12:16:29;;;;;;;9.35;6.18;;;;;;;4.41;100.00;97348.22;5072138;28;20036;-72
2023/01/17 12:19:17;;;;;;;7.45;5.85;;;;;;;4.45;100.00;97338.16;5063433;28;20044;-72
2023/01/17 12:21:47;;;;;;;8.52;6.22;;;;;;;4.50;100.00;97328.91;5056477;28;20032;-72
2023/01/17 12:25:00;;;;;;;7.95;5.00;;;;;;;4.54;100.00;97340.84;5072855;28;20036;-72
2023/01/17 12:27:33;;;;;;;6.80;4.78;;;;;;;4.54;100.00;97335.34;5062391;28;20049;-72
2023/01/17 12:30:04;;;;;;;7.10;4.95;;;;;;;4.57;100.00;97321.78;5059377;28;20025;-72
2023/01/17 12:32:42;;;;;;;8.30;4.95;;;;;;;4.59;100.00;97313.19;5043494;28;20037;-72
2023/01/17 12:35:28;;;;;;;7.03;5.10;;;;;;;4.62;100.00;97309.75;5056342;28;20033;-72
2023/01/17 12:37:57;;;;;;;7.25;4.75;;;;;;;4.65;100.00;97315.41;5051600;28;20045;-72
2023/01/17 12:40:51;;;;;;;8.85;4.70;;;;;;;4.68;100.00;97317.50;5064103;28;20033;-72
2023/01/17 12:43:19;;;;;;;7.75;4.18;;;;;;;4.73;100.00;97310.19;5060170;28;20131;-72
2023/01/17 12:45:46;;;;;;;6.28;4.40;;;;;;;4.76;100.00;97313.06;5047512;28;20033;-72
2023/01/17 12:48:22;;;;;;;6.95;4.05;;;;;;;4.80;100.00;97313.22;5047721;28;20116;-72
2023/01/17 12:50:53;;;;;;;7.35;4.50;;;;;;;4.82;100.00;97311.75;5070389;28;20064;-72
2023/01/17 12:53:21;;;;;;;9.18;4.78;;;;;;;4.82;100.00;97306.25;5065282;28;20083;-72
2023/01/17 12:55:56;;;;;;;6.88;3.90;;;;;;;4.83;100.00;97304.31;5076189;28;20039;-72
2023/01/17 12:58:28;;;;;;;4.60;3.70;;;;;;;4.84;100.00;97303.16;5041237;28;20484;-72
2023/01/17 13:01:06;;;;;;;5.88;3.67;;;;;;;4.84;100.00;97303.16;5021532;28;20032;-72
2023/01/17 13:04:12;;;;;;;5.72;3.30;;;;;;;4.82;100.00;97297.16;5053070;28;20032;-72
2023/01/17 13:07:12;;;;;;;6.18;3.10;;;;;;;4.87;100.00;97305.22;5048617;28;20531;-72
2023/01/17 13:09:43;;;;;;;7.38;3.58;;;;;;;4.91;100.00;97300.69;5048738;28;20082;-72
2023/01/17 13:12:14;;;;;;;4.88;3.30;;;;;;;4.96;100.00;97300.50;5070883;28;20122;-72